createdAt,value
2022-10-01T00:02:19.564Z,95.68
2022-10-01T00:04:47.340Z,95.69
2022-10-01T00:07:15.709Z,95.83
2022-10-01T00:09:43.677Z,96.11
2022-10-01T00:12:15.964Z,96.14
2022-10-01T00:14:44.740Z,96.14
2022-10-01T00:17:12.633Z,96.29
2022-10-01T00:19:40.568Z,95.88
2022-10-01T00:22:08.637Z,96.01
2022-10-01T00:24:37.945Z,96.67
2022-10-01T00:27:06.009Z,96.28
2022-10-01T00:29:34.221Z,95.85
2022-10-01T00:32:02.316Z,96.07
2022-10-01T00:34:30.526Z,96.50
2022-10-01T00:36:58.495Z,96.75
2022-10-01T00:39:26.571Z,96.86
2022-10-01T00:41:54.845Z,96.96
2022-10-01T00:44:35.203Z,96.93
2022-10-01T00:47:05.628Z,97.12
2022-10-01T00:49:36.973Z,96.99
2022-10-01T00:52:10.579Z,97.07
2022-10-01T00:54:41.515Z,97.13
2022-10-01T00:57:14.204Z,97.59
2022-10-01T00:59:43.501Z,97.61
2022-10-01T01:02:12.383Z,97.72
2022-10-01T01:04:41.671Z,97.97
2022-10-01T01:07:10.029Z,97.93
2022-10-01T01:09:43.083Z,97.87
2022-10-01T01:12:26.053Z,98.29
2022-10-01T01:15:03.256Z,98.00
2022-10-01T01:17:40.407Z,97.77
2022-10-01T01:20:20.034Z,97.95
2022-10-01T01:23:16.168Z,97.97
2022-10-01T01:26:07.230Z,98.13
2022-10-01T01:28:44.609Z,98.46
2022-10-01T01:31:18.052Z,98.34
2022-10-01T01:33:50.327Z,98.41
2022-10-01T01:36:24.067Z,98.27
2022-10-01T01:38:57.166Z,98.34
2022-10-01T01:41:29.562Z,98.55
2022-10-01T01:44:02.349Z,98.87
2022-10-01T01:46:35.085Z,99.23
2022-10-01T01:49:06.277Z,99.28
2022-10-01T01:51:48.785Z,99.48
2022-10-01T01:54:18.733Z,99.56
2022-10-01T01:56:48.234Z,99.74
2022-10-01T01:59:19.718Z,99.62
2022-10-01T02:01:49.632Z,99.17
2022-10-01T02:04:37.470Z,99.00
2022-10-01T02:07:08.306Z,99.14
2022-10-01T02:09:54.268Z,98.91
2022-10-01T02:13:01.701Z,98.94
2022-10-01T02:15:37.086Z,99.33
2022-10-01T02:18:20.296Z,99.66
2022-10-01T02:20:54.605Z,99.73
2022-10-01T02:23:28.789Z,99.77
2022-10-01T02:26:00.380Z,99.68
2022-10-01T02:28:33.475Z,99.72
2022-10-01T02:31:02.689Z,99.64
2022-10-01T02:33:33.789Z,99.95
2022-10-01T02:36:06.299Z,100.00
2022-10-01T02:38:36.775Z,100.00
2022-10-01T02:41:09.055Z,100.00
2022-10-01T02:43:50.326Z,100.00
2022-10-01T02:46:28.520Z,100.00
2022-10-01T02:48:57.322Z,100.00
2022-10-01T02:51:29.588Z,99.99
2022-10-01T02:54:07.302Z,99.96
2022-10-01T02:56:56.338Z,99.94
2022-10-01T02:59:24.419Z,99.95
2022-10-01T03:01:52.752Z,99.93
2022-10-01T03:04:20.872Z,99.95
2022-10-01T03:06:48.698Z,100.00
2022-10-01T03:09:16.809Z,99.92
2022-10-01T03:11:44.877Z,99.89
2022-10-01T03:14:12.947Z,99.57
2022-10-01T03:16:41.225Z,99.41
2022-10-01T03:19:09.129Z,99.37
2022-10-01T03:21:37.034Z,99.10
2022-10-01T03:24:05.229Z,99.18
2022-10-01T03:26:33.508Z,99.33
2022-10-01T03:29:01.894Z,99.36
2022-10-01T03:31:30.414Z,99.37
2022-10-01T03:34:00.458Z,99.57
2022-10-01T03:36:28.273Z,99.39
2022-10-01T03:38:56.731Z,99.23
2022-10-01T03:41:24.700Z,99.04
2022-10-01T03:43:56.017Z,99.09
2022-10-01T03:46:26.386Z,99.06
2022-10-01T03:48:56.486Z,99.10
2022-10-01T03:51:24.768Z,99.27
2022-10-01T03:53:52.834Z,99.33
2022-10-01T03:56:21.417Z,99.30
2022-10-01T03:58:50.034Z,99.41
2022-10-01T04:01:18.293Z,99.19
2022-10-01T04:03:46.721Z,98.90
2022-10-01T04:06:15.136Z,98.77
2022-10-01T04:08:43.110Z,98.66
2022-10-01T04:11:11.725Z,98.59
2022-10-01T04:13:39.860Z,98.64
2022-10-01T04:16:08.476Z,98.71
2022-10-01T04:18:36.573Z,98.79
2022-10-01T04:21:04.776Z,98.78
2022-10-01T04:23:32.755Z,98.93
2022-10-01T04:26:04.987Z,98.75
2022-10-01T04:28:33.212Z,98.66
2022-10-01T04:31:19.664Z,98.42
2022-10-01T04:33:47.674Z,98.43
2022-10-01T04:36:15.761Z,98.35
2022-10-01T04:38:43.564Z,98.71
2022-10-01T04:41:11.473Z,98.61
2022-10-01T04:43:40.455Z,98.69
2022-10-01T04:46:08.333Z,98.43
2022-10-01T04:48:36.312Z,98.17
2022-10-01T04:51:04.336Z,97.99
2022-10-01T04:53:32.404Z,97.88
2022-10-01T04:56:00.455Z,97.96
2022-10-01T04:58:28.378Z,97.95
2022-10-01T05:01:01.050Z,97.93
2022-10-01T05:03:30.162Z,97.80
2022-10-01T05:05:58.226Z,97.76
2022-10-01T05:08:26.293Z,97.64
2022-10-01T05:10:54.163Z,97.47
2022-10-01T05:13:22.129Z,97.23
2022-10-01T05:15:52.211Z,97.02
2022-10-01T05:18:20.188Z,96.86
2022-10-01T05:20:47.958Z,96.71
2022-10-01T05:23:16.052Z,96.64
2022-10-01T05:25:47.184Z,96.42
2022-10-01T05:28:21.277Z,95.99
2022-10-01T05:30:53.887Z,95.90
2022-10-01T05:33:21.795Z,95.49
2022-10-01T05:35:49.668Z,94.94
2022-10-01T05:38:17.490Z,94.71
2022-10-01T05:40:47.440Z,94.80
2022-10-01T05:43:15.982Z,94.81
2022-10-01T05:45:44.243Z,94.84
2022-10-01T05:48:13.041Z,94.78
2022-10-01T05:50:40.890Z,94.68
2022-10-01T05:53:11.480Z,94.82
2022-10-01T05:55:39.327Z,94.74
2022-10-01T05:58:12.296Z,94.42
2022-10-01T06:00:42.109Z,93.96
2022-10-01T06:03:13.072Z,93.79
2022-10-01T06:05:44.601Z,93.63
2022-10-01T06:08:13.479Z,93.42
2022-10-01T06:10:41.666Z,93.41
2022-10-01T06:13:09.521Z,93.52
2022-10-01T06:15:38.996Z,93.52
2022-10-01T06:18:08.962Z,93.23
2022-10-01T06:20:38.530Z,92.91
2022-10-01T06:23:12.136Z,92.78
2022-10-01T06:25:41.848Z,92.63
2022-10-01T06:28:12.666Z,92.33
2022-10-01T06:30:40.766Z,92.21
2022-10-01T06:33:11.808Z,91.84
2022-10-01T06:35:42.963Z,91.86
2022-10-01T06:38:11.578Z,91.56
2022-10-01T06:40:40.829Z,91.59
2022-10-01T06:43:09.722Z,91.63
2022-10-01T06:45:41.267Z,91.39
2022-10-01T06:48:14.606Z,91.51
2022-10-01T06:50:44.484Z,91.29
2022-10-01T06:53:14.291Z,91.13
2022-10-01T06:55:42.669Z,90.83
2022-10-01T06:58:14.925Z,90.81
2022-10-01T07:00:44.133Z,90.79
2022-10-01T07:03:15.946Z,90.78
2022-10-01T07:05:44.455Z,90.72
2022-10-01T07:08:13.223Z,91.04
2022-10-01T07:10:43.172Z,90.75
2022-10-01T07:13:20.945Z,90.49
2022-10-01T07:15:48.849Z,90.53
2022-10-01T07:18:17.094Z,90.47
2022-10-01T07:20:44.998Z,90.34
2022-10-01T07:23:14.865Z,90.34
2022-10-01T07:25:44.219Z,90.40
2022-10-01T07:28:18.840Z,90.57
2022-10-01T07:31:06.809Z,90.50
2022-10-01T07:33:34.736Z,90.40
2022-10-01T07:36:07.792Z,90.36
2022-10-01T07:38:35.681Z,90.04
2022-10-01T07:41:04.727Z,89.93
2022-10-01T07:43:34.839Z,89.71
2022-10-01T07:46:05.096Z,89.32
2022-10-01T07:48:33.220Z,89.04
2022-10-01T07:51:01.058Z,87.81
2022-10-01T07:53:29.334Z,87.23
2022-10-01T07:56:02.102Z,86.36
2022-10-01T07:58:30.081Z,85.52
2022-10-01T08:01:00.734Z,83.04
2022-10-01T08:03:28.574Z,79.81
2022-10-01T08:05:56.847Z,78.98
2022-10-01T08:08:24.817Z,77.87
2022-10-01T08:10:52.690Z,78.30
2022-10-01T08:13:24.895Z,76.75
2022-10-01T08:15:56.212Z,76.09
2022-10-01T08:18:24.446Z,72.58
2022-10-01T08:20:52.700Z,72.04
2022-10-01T08:23:21.623Z,72.29
2022-10-01T08:25:49.619Z,70.94
2022-10-01T08:28:17.966Z,70.73
2022-10-01T08:30:45.922Z,70.05
2022-10-01T08:33:14.809Z,69.44
2022-10-01T08:35:46.262Z,68.52
2022-10-01T08:38:15.199Z,69.07
2022-10-01T08:40:49.720Z,68.82
2022-10-01T08:43:30.076Z,68.20
2022-10-01T08:46:05.974Z,67.55
2022-10-01T08:48:45.563Z,66.97
2022-10-01T08:51:48.511Z,67.17
2022-10-01T08:54:35.158Z,67.54
2022-10-01T08:57:09.725Z,67.13
2022-10-01T08:59:49.624Z,67.10
2022-10-01T09:02:25.527Z,66.18
2022-10-01T09:05:02.940Z,66.34
2022-10-01T09:07:37.267Z,66.41
2022-10-01T09:10:21.008Z,66.27
2022-10-01T09:13:19.752Z,66.70
2022-10-01T09:16:02.356Z,66.58
2022-10-01T09:18:33.475Z,65.83
2022-10-01T09:21:01.598Z,65.05
2022-10-01T09:23:32.288Z,65.07
2022-10-01T09:26:00.762Z,65.50
2022-10-01T09:28:34.121Z,65.64
2022-10-01T09:31:23.824Z,65.96
2022-10-01T09:33:58.271Z,66.87
2022-10-01T09:36:41.369Z,66.88
2022-10-01T09:39:18.158Z,66.31
2022-10-01T09:41:46.926Z,66.03
2022-10-01T09:44:42.844Z,66.01
2022-10-01T09:47:19.329Z,65.71
2022-10-01T09:49:49.852Z,65.93
2022-10-01T09:52:20.799Z,66.64
2022-10-01T09:55:15.179Z,67.20
2022-10-01T09:57:48.032Z,68.02
2022-10-01T10:00:25.560Z,68.64
2022-10-01T10:02:55.781Z,69.17
2022-10-01T10:05:25.594Z,69.56
2022-10-01T10:07:58.379Z,70.00
2022-10-01T10:10:39.708Z,70.46
2022-10-01T10:13:13.970Z,70.57
2022-10-01T10:15:57.740Z,70.30
2022-10-01T10:18:34.056Z,70.22
2022-10-01T10:21:04.835Z,70.25
2022-10-01T10:23:34.453Z,69.68
2022-10-01T10:26:07.472Z,69.40
2022-10-01T10:28:46.227Z,69.70
2022-10-01T10:31:21.066Z,69.35
2022-10-01T10:34:23.964Z,69.36
2022-10-01T10:36:59.237Z,69.70
2022-10-01T10:39:30.843Z,69.54
2022-10-01T10:42:02.340Z,69.55
2022-10-01T10:44:38.952Z,69.39
2022-10-01T10:47:12.049Z,68.97
2022-10-01T10:49:47.698Z,68.34
2022-10-01T10:52:45.605Z,68.27
2022-10-01T10:55:23.482Z,69.02
2022-10-01T10:57:57.372Z,69.28
2022-10-01T11:00:26.792Z,69.41
2022-10-01T11:02:59.865Z,69.70
2022-10-01T11:05:32.160Z,70.18
2022-10-01T11:08:03.881Z,70.35
2022-10-01T11:10:34.873Z,70.36
2022-10-01T11:13:12.832Z,70.89
2022-10-01T11:15:42.170Z,71.25
2022-10-01T11:18:34.502Z,71.47
2022-10-01T11:21:20.172Z,71.15
2022-10-01T11:24:19.665Z,71.36
2022-10-01T11:26:53.328Z,70.29
2022-10-01T11:29:30.526Z,69.67
2022-10-01T11:32:19.453Z,69.59
2022-10-01T11:35:12.132Z,69.96
2022-10-01T11:38:18.287Z,70.28
2022-10-01T11:40:51.473Z,70.20
2022-10-01T11:43:27.169Z,69.64
2022-10-01T11:46:03.980Z,69.15
2022-10-01T11:48:39.589Z,68.18
2022-10-01T11:51:18.086Z,67.69
2022-10-01T11:54:01.845Z,67.48
2022-10-01T11:57:07.701Z,67.82
2022-10-01T12:00:09.714Z,67.78
2022-10-01T12:02:57.190Z,67.63
2022-10-01T12:05:31.386Z,67.45
2022-10-01T12:08:15.215Z,66.51
2022-10-01T12:10:43.109Z,66.00
2022-10-01T12:13:33.301Z,65.69
2022-10-01T12:16:06.314Z,66.26
2022-10-01T12:18:52.256Z,66.45
2022-10-01T12:21:41.742Z,65.75
2022-10-01T12:24:17.890Z,65.07
2022-10-01T12:27:19.365Z,64.58
2022-10-01T12:29:58.935Z,65.12
2022-10-01T12:32:26.652Z,64.57
2022-10-01T12:35:08.739Z,64.94
2022-10-01T12:38:02.605Z,65.14
2022-10-01T12:40:35.575Z,65.02
2022-10-01T12:43:40.936Z,65.19
2022-10-01T12:46:39.619Z,65.63
2022-10-01T12:49:44.601Z,64.25
2022-10-01T12:52:27.973Z,64.44
2022-10-01T12:55:04.495Z,64.59
2022-10-01T12:57:52.845Z,65.13
2022-10-01T13:00:27.349Z,65.25
2022-10-01T13:03:17.417Z,65.59
2022-10-01T13:06:12.657Z,65.79
2022-10-01T13:08:59.266Z,65.45
2022-10-01T13:11:44.187Z,65.55
2022-10-01T13:14:16.175Z,65.87
2022-10-01T13:17:12.328Z,66.00
2022-10-01T13:20:22.262Z,65.45
2022-10-01T13:22:56.002Z,65.09
2022-10-01T13:25:40.457Z,65.20
2022-10-01T13:28:22.990Z,65.62
2022-10-01T13:30:53.710Z,66.54
2022-10-01T13:33:32.179Z,67.14
2022-10-01T13:36:02.720Z,67.73
2022-10-01T13:38:39.555Z,68.22
2022-10-01T13:41:24.694Z,68.93
2022-10-01T13:43:58.441Z,69.76
2022-10-01T13:46:33.130Z,70.45
2022-10-01T13:49:19.701Z,70.95
2022-10-01T13:51:47.547Z,71.62
2022-10-01T13:54:43.347Z,71.75
2022-10-01T13:57:36.547Z,71.80
2022-10-01T14:00:04.766Z,72.95
2022-10-01T14:02:58.737Z,74.22
2022-10-01T14:05:40.184Z,75.25
2022-10-01T14:08:29.817Z,76.23
2022-10-01T14:11:21.278Z,76.78
2022-10-01T14:14:10.132Z,77.36
2022-10-01T14:16:43.834Z,77.74
2022-10-01T14:19:22.128Z,79.37
2022-10-01T14:21:55.649Z,78.85
2022-10-01T14:24:49.500Z,79.13
2022-10-01T14:27:40.668Z,81.59
2022-10-01T14:30:22.944Z,83.00
2022-10-01T14:33:28.898Z,85.06
2022-10-01T14:36:15.249Z,84.96
2022-10-01T14:38:43.370Z,85.19
2022-10-01T14:41:24.651Z,86.30
2022-10-01T14:43:52.450Z,87.74
2022-10-01T14:46:20.488Z,90.29
2022-10-01T14:48:58.600Z,89.78
2022-10-01T14:51:30.007Z,89.83
2022-10-01T14:54:00.449Z,91.50
2022-10-01T14:56:29.460Z,92.86
2022-10-01T14:59:03.023Z,91.24
2022-10-01T15:01:31.165Z,91.27
2022-10-01T15:03:59.325Z,91.79
2022-10-01T15:06:30.174Z,92.08
2022-10-01T15:09:08.249Z,91.67
2022-10-01T15:11:38.118Z,92.24
2022-10-01T15:14:16.901Z,91.53
2022-10-01T15:16:45.571Z,92.27
2022-10-01T15:19:17.295Z,92.43
2022-10-01T15:21:55.676Z,92.26
2022-10-01T15:24:45.618Z,92.18
2022-10-01T15:27:17.739Z,93.16
2022-10-01T15:29:55.340Z,92.70
2022-10-01T15:32:27.345Z,92.77
2022-10-01T15:34:58.174Z,92.85
2022-10-01T15:37:35.771Z,93.01
2022-10-01T15:40:20.262Z,93.59
2022-10-01T15:43:08.967Z,93.61
2022-10-01T15:45:36.773Z,94.25
2022-10-01T15:48:04.921Z,93.95
2022-10-01T15:50:39.442Z,93.58
2022-10-01T15:53:21.605Z,94.05
2022-10-01T15:55:53.199Z,93.82
2022-10-01T15:58:52.601Z,93.77
2022-10-01T16:01:28.217Z,93.64
2022-10-01T16:04:09.683Z,93.75
2022-10-01T16:06:40.061Z,93.88
2022-10-01T16:09:25.723Z,93.50
2022-10-01T16:12:02.351Z,94.71
2022-10-01T16:14:39.399Z,94.21
2022-10-01T16:17:19.981Z,94.47
2022-10-01T16:19:50.095Z,93.92
2022-10-01T16:22:19.312Z,92.84
2022-10-01T16:24:54.327Z,92.29
2022-10-01T16:27:24.077Z,92.00
2022-10-01T16:30:08.992Z,91.82
2022-10-01T16:32:36.978Z,91.38
2022-10-01T16:35:21.819Z,90.80
2022-10-01T16:37:51.950Z,90.38
2022-10-01T16:40:22.693Z,90.63
2022-10-01T16:42:51.153Z,91.30
2022-10-01T16:45:24.234Z,92.08
2022-10-01T16:47:53.301Z,92.10
2022-10-01T16:50:22.888Z,91.69
2022-10-01T16:52:57.164Z,91.52
2022-10-01T16:55:32.561Z,91.43
2022-10-01T16:58:02.168Z,91.66
2022-10-01T17:00:31.151Z,92.05
2022-10-01T17:03:02.424Z,92.10
2022-10-01T17:05:33.276Z,92.62
2022-10-01T17:08:03.630Z,92.73
2022-10-01T17:10:37.131Z,93.36
2022-10-01T17:13:05.042Z,94.18
2022-10-01T17:15:33.438Z,93.59
2022-10-01T17:18:02.168Z,93.75
2022-10-01T17:20:31.008Z,94.22
2022-10-01T17:22:59.507Z,94.21
2022-10-01T17:25:32.137Z,94.37
2022-10-01T17:28:04.429Z,94.46
2022-10-01T17:30:32.940Z,94.86
2022-10-01T17:33:01.639Z,94.92
2022-10-01T17:35:30.198Z,94.90
2022-10-01T17:37:58.910Z,96.01
2022-10-01T17:40:27.776Z,96.01
2022-10-01T17:42:55.590Z,95.78
2022-10-01T17:45:23.714Z,96.02
2022-10-01T17:47:51.682Z,96.59
2022-10-01T17:50:19.680Z,96.56
2022-10-01T17:52:48.627Z,97.11
2022-10-01T17:55:19.890Z,97.33
2022-10-01T17:57:47.641Z,97.08
2022-10-01T18:00:15.831Z,96.26
2022-10-01T18:02:44.469Z,97.51
2022-10-01T18:05:14.968Z,97.08
2022-10-01T18:07:42.902Z,96.98
2022-10-01T18:10:13.428Z,97.43
2022-10-01T18:12:41.315Z,96.88
2022-10-01T18:15:10.233Z,96.76
2022-10-01T18:17:43.181Z,96.58
2022-10-01T18:20:11.533Z,96.54
2022-10-01T18:22:39.511Z,95.96
2022-10-01T18:25:07.739Z,95.98
2022-10-01T18:27:35.773Z,95.83
2022-10-01T18:30:03.957Z,95.92
2022-10-01T18:32:37.747Z,96.02
2022-10-01T18:35:40.625Z,96.21
2022-10-01T18:38:24.438Z,96.36
2022-10-01T18:40:59.950Z,96.51
2022-10-01T18:43:32.893Z,96.76
2022-10-01T18:46:03.831Z,96.60
2022-10-01T18:48:51.330Z,96.60
2022-10-01T18:51:52.635Z,96.17
2022-10-01T18:54:40.255Z,96.35
2022-10-01T18:57:31.748Z,96.77
2022-10-01T19:00:17.401Z,96.62
2022-10-01T19:02:53.447Z,96.67
2022-10-01T19:05:29.761Z,96.96
2022-10-01T19:08:23.637Z,96.52
2022-10-01T19:11:30.387Z,96.51
2022-10-01T19:14:17.029Z,96.43
2022-10-01T19:16:57.092Z,96.00
2022-10-01T19:19:52.408Z,95.86
2022-10-01T19:22:26.507Z,95.66
2022-10-01T19:25:09.594Z,95.71
2022-10-01T19:27:55.987Z,95.94
2022-10-01T19:30:24.317Z,95.84
2022-10-01T19:33:10.614Z,95.87
2022-10-01T19:35:46.806Z,96.21
2022-10-01T19:38:42.447Z,96.02
2022-10-01T19:41:16.085Z,96.03
2022-10-01T19:43:52.045Z,96.24
2022-10-01T19:46:37.768Z,96.22
2022-10-01T19:49:08.762Z,96.10
2022-10-01T19:51:41.431Z,96.26
2022-10-01T19:54:17.198Z,96.34
2022-10-01T19:56:50.994Z,96.42
2022-10-01T19:59:20.707Z,96.08
2022-10-01T20:02:01.469Z,95.77
2022-10-01T20:04:49.002Z,95.53
2022-10-01T20:07:35.103Z,95.47
2022-10-01T20:10:25.608Z,95.28
2022-10-01T20:13:03.985Z,95.32
2022-10-01T20:15:46.535Z,95.31
2022-10-01T20:18:28.212Z,95.75
2022-10-01T20:21:22.390Z,96.12
2022-10-01T20:24:08.578Z,96.27
2022-10-01T20:26:46.286Z,96.35
2022-10-01T20:29:23.260Z,96.53
2022-10-01T20:32:18.451Z,96.75
2022-10-01T20:35:27.276Z,96.86
2022-10-01T20:38:27.730Z,96.61
2022-10-01T20:40:58.354Z,96.62
2022-10-01T20:43:50.652Z,96.92
2022-10-01T20:46:27.640Z,97.26
2022-10-01T20:49:13.762Z,97.26
2022-10-01T20:51:53.812Z,97.49
2022-10-01T20:54:33.360Z,97.83
2022-10-01T20:57:30.781Z,98.14
2022-10-01T21:00:08.737Z,98.35
2022-10-01T21:02:53.453Z,98.48
2022-10-01T21:05:39.444Z,98.43
2022-10-01T21:08:34.976Z,98.47
2022-10-01T21:11:09.564Z,98.70
2022-10-01T21:13:43.917Z,98.96
2022-10-01T21:16:32.889Z,99.59
2022-10-01T21:19:37.931Z,99.87
2022-10-01T21:22:21.565Z,99.94
2022-10-01T21:24:55.166Z,100.00
2022-10-01T21:27:54.818Z,100.00
2022-10-01T21:30:23.274Z,100.00
2022-10-01T21:33:10.701Z,100.00
2022-10-01T21:35:59.651Z,100.00
2022-10-01T21:38:43.790Z,100.00
2022-10-01T21:41:38.386Z,100.00
2022-10-01T21:44:36.454Z,100.00
2022-10-01T21:47:10.580Z,100.00
2022-10-01T21:49:47.984Z,100.00
2022-10-01T21:52:34.489Z,100.00
2022-10-01T21:55:26.823Z,100.00
2022-10-01T21:58:02.403Z,99.93
2022-10-01T22:00:32.761Z,99.92
2022-10-01T22:03:26.508Z,99.87
2022-10-01T22:06:12.910Z,99.54
2022-10-01T22:09:08.670Z,99.67
2022-10-01T22:11:41.028Z,99.60
2022-10-01T22:14:18.483Z,99.81
2022-10-01T22:17:16.062Z,99.83
2022-10-01T22:19:51.280Z,99.86
2022-10-01T22:22:29.542Z,99.65
2022-10-01T22:25:00.301Z,99.23
2022-10-01T22:27:32.335Z,99.01
2022-10-01T22:30:13.098Z,98.60
2022-10-01T22:33:13.127Z,98.51
2022-10-01T22:36:02.315Z,98.23
2022-10-01T22:38:36.568Z,98.21
2022-10-01T22:41:13.786Z,97.52
2022-10-01T22:43:43.106Z,96.28
2022-10-01T22:46:20.280Z,94.67
2022-10-01T22:49:26.744Z,95.45
2022-10-01T22:52:39.979Z,95.15
2022-10-01T22:55:35.385Z,93.81
2022-10-01T22:58:40.629Z,90.48
2022-10-01T23:01:27.204Z,88.98
2022-10-01T23:04:07.698Z,88.64
2022-10-01T23:07:03.926Z,88.40
2022-10-01T23:10:03.542Z,88.26
2022-10-01T23:12:37.550Z,87.80
2022-10-01T23:15:13.713Z,86.51
2022-10-01T23:17:52.025Z,86.06
2022-10-01T23:20:32.122Z,85.26
2022-10-01T23:23:25.310Z,84.21
2022-10-01T23:26:25.456Z,83.73
2022-10-01T23:29:11.753Z,83.49
2022-10-01T23:32:00.238Z,82.82
2022-10-01T23:34:46.694Z,82.50
2022-10-01T23:37:29.787Z,81.17
2022-10-01T23:40:13.281Z,81.39
2022-10-01T23:42:55.425Z,81.16
2022-10-01T23:45:38.602Z,80.93
2022-10-01T23:48:24.685Z,81.13
2022-10-01T23:51:27.216Z,80.69
2022-10-01T23:54:03.781Z,80.42
2022-10-01T23:56:50.041Z,80.76
2022-10-01T23:59:32.736Z,80.78
